Log in

NASDAQ:BGCPBGC Partners Institutional Ownership

$2.72
+0.14 (+5.43 %)
(As of 07/10/2020 04:00 PM ET)
Add
Compare
Today's Range
$2.57
Now: $2.72
$2.73
50-Day Range
$2.49
MA: $2.79
$3.29
52-Week Range
$2.07
Now: $2.72
$6.14
Volume3.52 million shs
Average Volume5.18 million shs
Market Capitalization$972.48 million
P/E Ratio272.27
Dividend Yield1.47%
Beta1.73

Institutional Ownership

Institutional Ownership Changes (13F Filings) for BGC Partners (NASDAQ:BGCP)

Institutional Ownership Percentage: 50.79%

Institutional Buying and Selling by Quarter


BGC Partners (NASDAQ BGCP) Institutional Buying and Selling

Reporting DateHedge FundShares HeldMarket Value% of PortfolioQuarterly Change in SharesOwnership in Company
7/8/2020Envestnet Asset Management Inc.59,876$0.16M0.0%-51.7%0.017%
6/19/2020State Street Corp4,087,692$10.30M0.0%+0.4%1.143%
6/16/2020Royal Bank of Canada150,004$0.38M0.0%-17.3%0.042%
6/2/2020Guggenheim Capital LLC29,642$75K0.0%-42.1%0.008%
5/18/2020Philadelphia Financial Management of San Francisco LLC5,266,011$13.27M3.4%+70.6%1.473%
5/18/2020Soros Fund Management LLC2,311,698$5.83M0.3%-38.5%0.647%
5/18/2020Voloridge Investment Management LLC117,242$0.30M0.0%N/A0.033%
5/18/2020Advisor Group Holdings Inc.346,998$0.88M0.0%N/A0.097%
5/15/2020Cruiser Capital Advisors LLC1,145,845$2.89M3.7%+15.1%0.323%
5/15/2020Peapack Gladstone Financial Corp20,500$52K0.0%-22.6%0.006%
5/15/2020AQR Capital Management LLC2,166,357$5.26M0.0%+8.0%0.610%
5/15/2020Engineers Gate Manager LP112,126$0.28M0.0%N/A0.032%
5/15/2020Squarepoint Ops LLC393,155$0.99M0.0%N/A0.111%
5/15/2020Jane Street Group LLC29,509$74K0.0%N/A0.008%
5/15/2020Invesco Ltd.2,134,025$5.38M0.0%-3.7%0.601%
5/15/2020Morgan Stanley268,604$0.68M0.0%-39.3%0.076%
5/15/2020Advisors Asset Management Inc.572,294$1.44M0.0%-2.0%0.161%
5/15/2020United Capital Financial Advisers LLC11,483$29K0.0%N/A0.003%
5/15/2020Two Sigma Securities LLC38,076$96K0.0%N/A0.011%
5/15/2020Two Sigma Investments LP61,459$0.16M0.0%-90.6%0.017%
5/15/2020Balyasny Asset Management LLC279,292$0.70M0.0%+1,258.1%0.079%
5/15/2020Driehaus Capital Management LLC33,130$83K0.0%-66.7%0.009%
5/15/2020Alyeska Investment Group L.P.4,997,514$12.59M0.3%+64.8%1.408%
5/15/2020Rafferty Asset Management LLC10,417$26K0.0%-78.2%0.003%
5/14/2020O Shares Investment Advisers LLC55,932$0.14M0.0%-8.2%0.016%
5/14/2020Wells Fargo & Company MN624,467$1.57M0.0%+32.2%0.176%
5/14/2020Geode Capital Management LLC3,485,444$8.78M0.0%+6.0%0.982%
5/14/2020Janus Henderson Group PLC51,181$0.13M0.0%+103.0%0.014%
5/14/2020Wellington Management Group LLP146,883$0.37M0.0%+53.9%0.041%
5/14/2020Legal & General Group Plc202,672$0.51M0.0%+3.5%0.057%
5/14/2020Deutsche Bank AG33,783$85K0.0%+108.2%0.010%
5/14/2020Alliancebernstein L.P.130,990$0.33M0.0%-14.5%0.037%
5/14/2020Clear Harbor Asset Management LLC20,000$50K0.0%N/A0.006%
5/14/2020M&T Bank Corp59,994$3.42M0.0%+17.6%0.017%
5/14/2020Nuveen Asset Management LLC941,495$2.37M0.0%+2.2%0.265%
5/14/2020Wintrust Investments LLC305,528$0.77M0.1%-45.6%0.086%
5/13/2020Canada Pension Plan Investment Board86,142$0.22M0.0%N/A0.024%
5/13/2020Parametric Portfolio Associates LLC1,557,144$3.92M0.0%-19.8%0.439%
5/13/2020Treasurer of the State of North Carolina123,389$0.31M0.0%+74.0%0.035%
5/13/2020BNP Paribas Arbitrage SA977,511$2.46M0.0%+1,979.2%0.275%
5/13/2020Horizon Kinetics Asset Management LLC2,871,225$7.24M0.3%+0.6%0.809%
5/13/2020Federated Hermes Inc.21,642$55K0.0%N/A0.006%
5/13/2020SeaCrest Wealth Management LLC23,409$59K0.0%-35.6%0.007%
5/13/2020Dynamic Technology Lab Private Ltd152,566$0.38M0.1%N/A0.043%
5/13/2020US Bancorp DE10,277$26K0.0%-45.3%0.003%
5/12/2020Moors & Cabot Inc.97,200$0.25M0.0%+270.3%0.027%
5/12/2020Vident Investment Advisory LLC55,932$0.14M0.0%N/A0.016%
5/12/2020Eqis Capital Management Inc.55,385$0.30M0.0%-47.2%0.016%
5/12/2020Principal Financial Group Inc.9,549,432$24.06M0.0%-48.7%2.691%
5/12/2020Wealthsource Partners LLC62,609$0.16M0.0%+45.2%0.018%
5/12/2020Victory Capital Management Inc.39,342$99K0.0%-15.9%0.011%
5/12/2020Granahan Investment Management Inc. MA4,052,481$10.21M0.5%+507.2%1.142%
5/12/2020FCG Advisors LLC11,462$29K0.0%N/A0.003%
5/12/2020GSA Capital Partners LLP97,157$0.25M0.1%+8.3%0.027%
5/12/2020JPMorgan Chase & Co.2,906,727$7.33M0.0%+8.5%0.819%
5/11/2020Ensign Peak Advisors Inc1,637,851$4.13M0.0%+202.0%0.462%
5/11/2020Fieldpoint Private Securities LLC24,000$60K0.0%+140.0%0.007%
5/11/2020State Street Corp4,087,692$10.30M0.0%+0.4%1.152%
5/11/2020WINTON GROUP Ltd13,332$34K0.0%N/A0.004%
5/9/2020National Asset Management Inc.12,478$32K0.0%N/A0.004%
5/8/2020Alberta Investment Management Corp2,000,000$5.04M0.1%+56.1%0.574%
5/8/2020Clear Harbor Asset Management LLC20,000$50K0.0%N/A0.006%
5/8/2020ETRADE Capital Management LLC178,454$0.45M0.0%+35.5%0.051%
5/8/2020Swiss National Bank528,508$1.33M0.0%+2.5%0.149%
5/8/2020IndexIQ Advisors LLC76,048$0.19M0.0%N/A0.021%
5/7/2020Aptus Capital Advisors LLC121,000$0.31M0.0%N/A0.035%
5/6/2020Zurcher Kantonalbank Zurich Cantonalbank35,698$90K0.0%+28.8%0.010%
5/6/2020First Trust Advisors LP58,536$0.15M0.0%-98.2%0.017%
5/6/2020Russell Investments Group Ltd.1,684,982$4.24M0.0%+37.9%0.483%
5/6/2020Bank of New York Mellon Corp3,260,901$8.22M0.0%-1.7%0.935%
5/6/2020Rhumbline Advisers299,002$0.75M0.0%+35.6%0.086%
5/5/2020Stone Ridge Asset Management LLC26,904$68K0.0%-84.0%0.008%
5/5/20209258 Wealth Management LLC24,996$72K0.0%-16.3%0.007%
5/5/2020Arizona State Retirement System63,970$0.16M0.0%N/A0.018%
5/5/2020Alaska Permanent Fund Corp183,910$0.46M0.0%N/A0.053%
5/5/2020Creative Planning20,215$51K0.0%+26.1%0.006%
5/5/2020Aperio Group LLC357,552$0.90M0.0%-40.5%0.103%
5/4/2020Victory Capital Management Inc.39,342$99K0.0%-15.9%0.011%
5/2/2020SG Americas Securities LLC26,451$67K0.0%N/A0.008%
5/1/2020BlackRock Inc.12,509,318$31.52M0.0%-2.6%3.588%
5/1/2020Robertson Stephens Wealth Management LLC612,470$1.54M0.5%N/A0.176%
5/1/2020Shikiar Asset Management Inc.64,150$0.16M0.1%-52.6%0.018%
5/1/2020UBS Group AG113,410$0.29M0.0%-42.5%0.033%
4/30/2020Calton & Associates Inc.10,420$26K0.0%N/A0.003%
4/29/2020Brinker Capital Inc.76,360$0.19M0.0%-28.0%0.022%
4/29/2020Steward Partners Investment Advisory LLC352,345$0.89M0.0%+19.6%0.101%
4/29/2020Parcion Private Wealth LLC30,061$76K0.0%-11.3%0.009%
4/23/2020Strs Ohio117,044$0.29M0.0%N/A0.034%
4/23/2020Envestnet Asset Management Inc.124,085$0.31M0.0%-30.7%0.036%
4/23/2020MERIAN GLOBAL INVESTORS UK Ltd14,761$37K0.0%N/A0.004%
4/22/2020Sicart Associates LLC132,414$0.33M0.1%-16.5%0.038%
4/21/2020Raymond James & Associates3,202,512$8.07M0.0%-70.8%0.919%
4/21/2020Raymond James Financial Services Advisors Inc.1,745,471$4.40M0.0%-39.2%0.501%
4/20/2020Tranquility Partners LLC99,603$0.25M0.3%-54.0%0.029%
4/17/2020Nisa Investment Advisors LLC12,850$32K0.0%-90.0%0.004%
4/17/2020Raymond James Trust N.A.82,086$0.21M0.0%-21.4%0.024%
4/17/2020Regent Investment Management LLC116,000$0.29M0.1%+18.4%0.033%
4/14/2020Magnolia Capital Advisors LLC49,320$0.12M0.2%+13.0%0.014%
3/31/2020Magnolia Capital Advisors LLC43,641$0.26M0.2%N/A0.013%
3/5/2020Nuveen Asset Management LLC921,165$5.47M0.0%-8.5%0.264%
(Data available from 1/1/2016 forward)
This page was last updated on 7/12/2020 by MarketBeat.com Staff

Enter your email address below to receive a concise daily summary of analysts' upgrades, downgrades and new coverage with MarketBeat.com's FREE daily email newsletter.